createdAt,value
2023-01-21T00:01:11.892Z,54.63
2023-01-21T00:03:45.020Z,58.97
2023-01-21T00:06:15.089Z,53.20
2023-01-21T00:08:42.507Z,52.63
2023-01-21T00:11:15.275Z,48.87
2023-01-21T00:13:53.102Z,56.87
2023-01-21T00:16:25.740Z,49.87
2023-01-21T00:18:53.021Z,54.50
2023-01-21T00:21:22.661Z,50.70
2023-01-21T00:23:50.034Z,52.77
2023-01-21T00:26:17.520Z,56.50
2023-01-21T00:28:44.940Z,46.93
2023-01-21T00:31:12.787Z,47.93
2023-01-21T00:33:39.897Z,47.47
2023-01-21T00:36:09.635Z,49.40
2023-01-21T00:38:36.765Z,51.77
2023-01-21T00:41:06.267Z,47.00
2023-01-21T00:43:34.148Z,49.77
2023-01-21T00:46:01.175Z,51.60
2023-01-21T00:48:28.843Z,45.00
2023-01-21T00:50:56.181Z,42.30
2023-01-21T00:53:24.054Z,49.20
2023-01-21T00:55:51.025Z,46.37
2023-01-21T00:58:18.151Z,42.47
2023-01-21T01:00:45.215Z,42.73
2023-01-21T01:03:12.243Z,42.80
2023-01-21T01:05:39.317Z,43.20
2023-01-21T01:08:06.485Z,43.23
2023-01-21T01:10:33.563Z,41.77
2023-01-21T01:13:01.924Z,41.93
2023-01-21T01:15:29.357Z,39.30
2023-01-21T01:17:56.320Z,45.33
2023-01-21T01:20:23.698Z,42.47
2023-01-21T01:22:50.540Z,37.10
2023-01-21T01:25:17.957Z,47.03
2023-01-21T01:27:44.968Z,38.60
2023-01-21T01:30:12.873Z,43.53
2023-01-21T01:32:40.285Z,45.43
2023-01-21T01:35:08.240Z,44.67
2023-01-21T01:37:38.498Z,42.00
2023-01-21T01:40:06.034Z,35.17
2023-01-21T01:42:33.408Z,40.93
2023-01-21T01:45:05.309Z,40.57
2023-01-21T01:47:45.544Z,36.13
2023-01-21T01:50:15.774Z,44.17
2023-01-21T01:52:44.629Z,39.47
2023-01-21T01:55:15.519Z,42.87
2023-01-21T01:57:48.314Z,44.57
2023-01-21T02:00:16.167Z,42.37
2023-01-21T02:03:04.691Z,43.67
2023-01-21T02:05:34.382Z,40.80
2023-01-21T02:08:02.763Z,41.63
2023-01-21T02:10:31.765Z,38.63
2023-01-21T02:12:58.705Z,43.17
2023-01-21T02:15:35.887Z,45.90
2023-01-21T02:18:17.575Z,46.23
2023-01-21T02:21:32.887Z,38.87
2023-01-21T02:27:42.686Z,36.83
2023-01-21T02:30:25.900Z,41.50
2023-01-21T02:33:23.648Z,37.80
2023-01-21T02:36:15.979Z,38.43
2023-01-21T02:39:06.328Z,37.53
2023-01-21T02:42:24.928Z,36.20
2023-01-21T02:48:45.851Z,39.10
2023-01-21T02:51:26.311Z,35.20
2023-01-21T02:53:53.287Z,36.53
2023-01-21T02:56:26.103Z,36.60
2023-01-21T02:59:05.625Z,35.10
2023-01-21T03:01:38.372Z,34.80
2023-01-21T03:04:46.443Z,43.73
2023-01-21T03:07:28.015Z,41.63
2023-01-21T03:10:16.758Z,40.63
2023-01-21T03:13:46.736Z,38.10
2023-01-21T03:16:36.061Z,39.93
2023-01-21T03:19:07.104Z,40.87
2023-01-21T03:21:35.560Z,42.10
2023-01-21T03:24:03.203Z,44.87
2023-01-21T03:26:39.179Z,39.63
2023-01-21T03:29:14.747Z,37.43
2023-01-21T03:31:48.315Z,36.30
2023-01-21T03:34:17.050Z,39.23
2023-01-21T03:40:03.044Z,41.60
2023-01-21T03:42:42.358Z,40.23
2023-01-21T03:45:10.605Z,47.03
2023-01-21T03:47:43.982Z,44.30
2023-01-21T03:50:16.578Z,34.90
2023-01-21T03:52:50.817Z,40.17
2023-01-21T03:55:36.551Z,37.07
2023-01-21T03:58:04.522Z,38.40
2023-01-21T04:00:34.756Z,43.50
2023-01-21T04:03:01.838Z,38.87
2023-01-21T04:05:32.023Z,41.80
2023-01-21T04:07:59.473Z,39.37
2023-01-21T04:10:26.835Z,40.53
2023-01-21T04:12:54.192Z,36.13
2023-01-21T04:15:21.359Z,40.50
2023-01-21T04:17:48.716Z,44.50
2023-01-21T04:20:20.553Z,38.27
2023-01-21T04:22:47.897Z,38.23
2023-01-21T04:25:14.981Z,37.77
2023-01-21T04:27:42.083Z,40.33
2023-01-21T04:30:12.960Z,32.50
2023-01-21T04:32:43.156Z,44.93
2023-01-21T04:35:10.442Z,43.57
2023-01-21T04:37:37.486Z,36.37
2023-01-21T04:40:05.098Z,41.93
2023-01-21T04:42:32.392Z,45.47
2023-01-21T04:45:03.162Z,37.43
2023-01-21T04:47:30.801Z,39.20
2023-01-21T04:49:57.951Z,37.30
2023-01-21T04:52:25.460Z,39.87
2023-01-21T04:54:52.881Z,36.77
2023-01-21T04:57:20.240Z,35.27
2023-01-21T04:59:48.551Z,41.27
2023-01-21T05:02:16.098Z,38.63
2023-01-21T05:04:46.098Z,42.13
2023-01-21T05:07:18.798Z,40.47
2023-01-21T05:09:50.563Z,33.80
2023-01-21T05:15:00.614Z,38.97
2023-01-21T05:17:49.261Z,39.30
2023-01-21T05:27:07.318Z,38.63
2023-01-21T05:49:21.844Z,37.70
2023-01-21T05:56:59.393Z,39.53
2023-01-21T06:07:04.148Z,37.67
2023-01-21T06:10:12.977Z,38.93
2023-01-21T06:12:40.157Z,43.43
2023-01-21T06:15:10.645Z,45.03
2023-01-21T06:17:42.708Z,45.90
2023-01-21T06:20:10.960Z,43.93
2023-01-21T06:22:38.079Z,44.87
2023-01-21T06:25:07.912Z,49.07
2023-01-21T06:27:40.436Z,59.60
2023-01-21T06:30:10.228Z,50.07
2023-01-21T06:32:37.788Z,53.50
2023-01-21T06:35:05.481Z,64.77
2023-01-21T06:37:32.507Z,57.30
2023-01-21T06:39:59.649Z,51.07
2023-01-21T06:42:32.813Z,57.60
2023-01-21T06:44:59.734Z,57.77
2023-01-21T06:47:27.027Z,48.70
2023-01-21T06:49:54.527Z,60.60
2023-01-21T06:52:22.521Z,61.87
2023-01-21T06:54:49.475Z,67.37
2023-01-21T06:57:16.588Z,58.23
2023-01-21T06:59:46.977Z,60.03
2023-01-21T07:02:17.603Z,59.67
2023-01-21T07:04:45.599Z,72.97
2023-01-21T07:07:12.632Z,62.70
2023-01-21T07:09:39.711Z,62.40
2023-01-21T07:12:06.816Z,52.30
2023-01-21T07:14:33.910Z,69.13
2023-01-21T07:17:01.028Z,60.00
2023-01-21T07:19:31.499Z,58.30
2023-01-21T07:21:58.561Z,57.17
2023-01-21T07:24:25.622Z,57.27
2023-01-21T07:27:06.111Z,66.07
2023-01-21T07:29:38.947Z,61.63
2023-01-21T07:32:09.250Z,66.13
2023-01-21T07:34:36.622Z,54.60
2023-01-21T07:37:03.643Z,64.60
2023-01-21T07:39:31.600Z,63.50
2023-01-21T07:41:58.785Z,60.13
2023-01-21T07:44:27.385Z,56.40
2023-01-21T07:46:57.668Z,64.27
2023-01-21T07:49:24.893Z,59.93
2023-01-21T07:51:56.817Z,64.07
2023-01-21T07:54:23.775Z,66.33
2023-01-21T07:56:50.749Z,59.93
2023-01-21T07:59:18.079Z,61.33
2023-01-21T08:01:45.128Z,60.37
2023-01-21T08:04:15.157Z,60.43
2023-01-21T08:06:42.291Z,68.97
2023-01-21T08:09:13.305Z,57.37
2023-01-21T08:11:40.625Z,62.40
2023-01-21T08:14:07.705Z,59.13
2023-01-21T08:16:37.755Z,60.20
2023-01-21T08:19:05.245Z,65.83
2023-01-21T08:21:38.375Z,67.07
2023-01-21T08:24:06.169Z,60.03
2023-01-21T08:26:35.984Z,56.10
2023-01-21T08:29:02.907Z,67.53
2023-01-21T08:31:29.866Z,72.20
2023-01-21T08:33:58.018Z,62.73
2023-01-21T08:36:25.344Z,69.53
2023-01-21T08:39:05.837Z,78.93
2023-01-21T08:41:33.618Z,68.00
2023-01-21T08:44:00.869Z,63.57
2023-01-21T08:46:27.813Z,59.20
2023-01-21T08:48:54.633Z,59.17
2023-01-21T08:51:21.939Z,63.47
2023-01-21T08:53:50.081Z,62.03
2023-01-21T08:56:17.756Z,62.37
2023-01-21T08:58:44.798Z,59.23
2023-01-21T09:01:15.181Z,58.73
2023-01-21T09:03:42.321Z,58.23
2023-01-21T09:06:11.194Z,49.17
2023-01-21T09:08:38.042Z,54.90
2023-01-21T09:11:07.001Z,51.80
2023-01-21T09:13:39.218Z,50.57
2023-01-21T09:16:13.437Z,46.67
2023-01-21T09:18:41.097Z,58.87
2023-01-21T09:21:08.583Z,57.50
2023-01-21T09:23:36.963Z,48.23
2023-01-21T09:26:23.312Z,48.27
2023-01-21T09:28:55.624Z,47.57
2023-01-21T09:31:24.368Z,53.73
2023-01-21T09:33:54.068Z,50.47
2023-01-21T09:36:26.921Z,62.67
2023-01-21T09:38:54.576Z,52.57
2023-01-21T09:41:39.928Z,61.13
2023-01-21T09:44:15.929Z,53.27
2023-01-21T09:47:07.396Z,64.10
2023-01-21T09:49:44.470Z,54.87
2023-01-21T09:52:30.570Z,55.00
2023-01-21T09:54:58.823Z,51.10
2023-01-21T09:57:34.652Z,58.20
2023-01-21T10:00:06.806Z,63.50
2023-01-21T10:03:04.569Z,66.87
2023-01-21T10:05:47.561Z,62.67
2023-01-21T10:08:22.253Z,60.57
2023-01-21T10:11:12.530Z,72.33
2023-01-21T10:14:17.853Z,62.60
2023-01-21T10:17:12.908Z,56.03
2023-01-21T10:19:48.217Z,59.47
2023-01-21T10:22:19.744Z,55.80
2023-01-21T10:24:51.796Z,66.50
2023-01-21T10:27:21.181Z,58.03
2023-01-21T10:30:00.460Z,62.00
2023-01-21T10:32:28.257Z,53.60
2023-01-21T10:34:57.041Z,48.30
2023-01-21T10:37:45.885Z,57.70
2023-01-21T10:40:42.776Z,59.47
2023-01-21T10:43:47.771Z,53.73
2023-01-21T10:46:37.186Z,53.97
2023-01-21T10:49:31.563Z,62.40
2023-01-21T10:52:11.691Z,54.13
2023-01-21T10:54:56.620Z,57.50
2023-01-21T10:57:34.263Z,64.33
2023-01-21T11:00:03.032Z,56.33
2023-01-21T11:02:34.022Z,58.03
2023-01-21T11:05:04.927Z,68.83
2023-01-21T11:07:43.369Z,61.53
2023-01-21T11:10:17.914Z,63.83
2023-01-21T11:12:44.697Z,62.70
2023-01-21T11:15:17.814Z,55.80
2023-01-21T11:17:47.435Z,55.93
2023-01-21T11:20:32.240Z,59.27
2023-01-21T11:22:59.065Z,57.63
2023-01-21T11:25:25.905Z,59.23
2023-01-21T11:27:52.725Z,56.97
2023-01-21T11:30:55.296Z,53.80
2023-01-21T11:33:25.520Z,60.17
2023-01-21T11:35:54.011Z,59.30
2023-01-21T11:38:35.675Z,54.60
2023-01-21T11:41:11.518Z,54.03
2023-01-21T11:43:51.145Z,55.40
2023-01-21T11:46:30.258Z,51.67
2023-01-21T11:49:19.567Z,58.40
2023-01-21T11:51:47.313Z,53.20
2023-01-21T11:54:23.891Z,54.20
2023-01-21T11:57:02.489Z,52.47
2023-01-21T11:59:34.405Z,49.63
2023-01-21T12:02:10.748Z,52.50
2023-01-21T12:04:42.880Z,50.67
2023-01-21T12:07:19.501Z,50.53
2023-01-21T12:09:54.365Z,50.93
2023-01-21T12:12:49.055Z,48.70
2023-01-21T12:15:47.556Z,44.20
2023-01-21T12:18:33.135Z,56.53
2023-01-21T12:21:21.638Z,43.17
2023-01-21T12:24:14.769Z,45.27
2023-01-21T12:26:55.912Z,50.93
2023-01-21T12:29:31.730Z,45.10
2023-01-21T12:32:05.170Z,42.70
2023-01-21T12:34:38.749Z,44.57
2023-01-21T12:37:20.640Z,48.47
2023-01-21T12:39:50.390Z,52.33
2023-01-21T12:42:29.387Z,51.20
2023-01-21T12:45:29.021Z,50.03
2023-01-21T12:48:27.823Z,57.63
2023-01-21T12:51:23.593Z,52.83
2023-01-21T12:54:09.700Z,49.27
2023-01-21T12:56:59.878Z,45.97
2023-01-21T12:59:43.422Z,52.30
2023-01-21T13:02:46.430Z,44.03
2023-01-21T13:05:30.727Z,45.87
2023-01-21T13:08:22.913Z,44.10
2023-01-21T13:10:57.426Z,44.00
2023-01-21T13:13:48.289Z,44.07
2023-01-21T13:16:15.261Z,42.80
2023-01-21T13:18:45.448Z,42.87
2023-01-21T13:21:28.304Z,47.97
2023-01-21T13:24:04.509Z,38.77
2023-01-21T13:26:57.237Z,39.67
2023-01-21T13:30:00.838Z,38.20
2023-01-21T13:32:45.912Z,43.70
2023-01-21T13:35:23.717Z,39.23
2023-01-21T13:37:59.692Z,40.20
2023-01-21T13:40:50.961Z,41.77
2023-01-21T13:43:27.005Z,41.53
2023-01-21T13:45:56.699Z,44.10
2023-01-21T13:48:29.322Z,42.17
2023-01-21T13:51:25.786Z,40.43
2023-01-21T13:54:20.760Z,46.30
2023-01-21T13:56:59.255Z,48.30
2023-01-21T13:59:38.037Z,44.40
2023-01-21T14:02:18.826Z,46.43
2023-01-21T14:04:57.675Z,51.67
2023-01-21T14:07:43.720Z,47.87
2023-01-21T14:10:29.065Z,41.67
2023-01-21T14:13:08.071Z,40.77
2023-01-21T14:16:02.808Z,44.23
2023-01-21T14:18:41.940Z,42.50
2023-01-21T14:21:27.360Z,44.40
2023-01-21T14:24:24.786Z,42.50
2023-01-21T14:26:59.683Z,48.67
2023-01-21T14:29:33.060Z,47.47
2023-01-21T14:32:27.771Z,48.43
2023-01-21T14:34:54.543Z,39.57
2023-01-21T14:37:44.628Z,40.37
2023-01-21T14:40:28.995Z,39.40
2023-01-21T14:42:56.201Z,39.77
2023-01-21T14:45:44.016Z,35.87
2023-01-21T14:48:42.028Z,39.00
2023-01-21T14:51:12.233Z,35.50
2023-01-21T14:53:51.233Z,38.40
2023-01-21T14:56:28.957Z,37.77
2023-01-21T14:59:05.074Z,37.60
2023-01-21T15:01:44.709Z,35.83
2023-01-21T15:04:26.062Z,33.37
2023-01-21T15:07:02.591Z,38.33
2023-01-21T15:09:38.198Z,48.00
2023-01-21T15:12:13.918Z,33.90
2023-01-21T15:14:42.115Z,35.57
2023-01-21T15:17:57.767Z,41.00
2023-01-21T15:20:51.272Z,37.47
2023-01-21T15:23:29.304Z,40.93
2023-01-21T15:26:08.856Z,44.63
2023-01-21T15:28:46.022Z,45.30
2023-01-21T15:31:39.986Z,34.73
2023-01-21T15:34:21.207Z,37.27
2023-01-21T15:36:57.091Z,37.10
2023-01-21T15:39:33.360Z,36.53
2023-01-21T15:42:32.772Z,40.87
2023-01-21T15:45:29.659Z,37.27
2023-01-21T15:48:20.794Z,35.03
2023-01-21T15:51:12.408Z,35.60
2023-01-21T15:54:00.784Z,37.47
2023-01-21T15:56:36.399Z,29.70
2023-01-21T15:59:22.764Z,35.70
2023-01-21T16:02:03.633Z,32.07
2023-01-21T16:04:41.372Z,36.50
2023-01-21T16:07:17.747Z,32.23
2023-01-21T16:10:01.980Z,35.43
2023-01-21T16:13:07.050Z,39.43
2023-01-21T16:15:48.528Z,33.40
2023-01-21T16:18:26.068Z,35.93
2023-01-21T16:20:55.625Z,33.60
2023-01-21T16:23:25.991Z,39.27
2023-01-21T16:25:53.473Z,33.53
2023-01-21T16:28:21.390Z,33.23
2023-01-21T16:30:59.237Z,39.13
2023-01-21T16:33:26.527Z,34.73
2023-01-21T16:35:56.807Z,33.33
2023-01-21T16:38:31.590Z,28.20
2023-01-21T16:41:07.301Z,36.67
2023-01-21T16:43:36.490Z,35.03
2023-01-21T16:46:06.373Z,28.53
2023-01-21T16:48:34.322Z,33.30
2023-01-21T16:51:01.689Z,32.67
2023-01-21T16:53:28.660Z,28.97
2023-01-21T16:55:59.672Z,25.53
2023-01-21T16:58:32.510Z,30.37
2023-01-21T17:01:10.799Z,27.27
2023-01-21T17:03:39.136Z,37.77
2023-01-21T17:06:19.334Z,33.80
2023-01-21T17:08:53.416Z,32.57
2023-01-21T17:11:22.289Z,37.03
2023-01-21T17:13:49.749Z,40.20
2023-01-21T17:16:24.663Z,40.47
2023-01-21T17:19:07.813Z,35.27
2023-01-21T17:21:44.443Z,37.30
2023-01-21T17:24:19.342Z,35.83
2023-01-21T17:26:49.375Z,33.03
2023-01-21T17:29:30.962Z,27.67
2023-01-21T17:32:00.978Z,34.90
2023-01-21T17:34:30.166Z,31.93
2023-01-21T17:36:57.656Z,31.50
2023-01-21T17:39:49.598Z,32.43
2023-01-21T17:42:19.419Z,41.90
2023-01-21T17:44:56.151Z,35.60
2023-01-21T17:47:37.546Z,32.47
2023-01-21T17:50:45.006Z,36.90
2023-01-21T17:53:22.200Z,34.63
2023-01-21T17:56:03.119Z,34.43
2023-01-21T17:58:53.009Z,40.00
2023-01-21T18:01:21.269Z,39.87
2023-01-21T18:03:48.461Z,34.83
2023-01-21T18:06:18.606Z,39.77
2023-01-21T18:08:45.900Z,38.40
2023-01-21T18:11:15.992Z,34.03
2023-01-21T18:13:43.194Z,33.40
2023-01-21T18:16:10.839Z,38.03
2023-01-21T18:18:41.473Z,39.50
2023-01-21T18:21:18.089Z,37.07
2023-01-21T18:23:45.061Z,52.20
2023-01-21T18:26:27.559Z,36.67
2023-01-21T18:28:54.945Z,34.53
2023-01-21T18:31:22.701Z,33.70
2023-01-21T18:33:56.100Z,30.20
2023-01-21T18:36:32.102Z,30.30
2023-01-21T18:38:59.221Z,37.60
2023-01-21T18:41:26.300Z,33.73
2023-01-21T18:43:57.106Z,33.70
2023-01-21T18:46:34.859Z,31.10
2023-01-21T18:49:05.891Z,32.73
2023-01-21T18:51:33.101Z,30.87
2023-01-21T18:54:07.495Z,35.33
2023-01-21T18:56:47.800Z,34.27
2023-01-21T18:59:22.553Z,35.25
2023-01-21T19:01:59.818Z,39.53
2023-01-21T19:04:33.409Z,38.40
2023-01-21T19:07:07.470Z,33.20
2023-01-21T19:09:41.046Z,34.33
2023-01-21T19:12:10.734Z,40.30
2023-01-21T19:14:40.598Z,35.33
2023-01-21T19:17:15.359Z,38.10
2023-01-21T19:19:45.188Z,34.40
2023-01-21T19:22:15.797Z,42.33
2023-01-21T19:24:43.215Z,42.08
2023-01-21T19:27:37.353Z,34.53
2023-01-21T19:30:19.748Z,30.37
2023-01-21T19:32:47.802Z,38.80
2023-01-21T19:35:28.426Z,37.87
2023-01-21T19:37:55.697Z,33.90
2023-01-21T19:40:24.638Z,38.50
2023-01-21T19:42:51.846Z,39.80
2023-01-21T19:45:19.802Z,44.93
2023-01-21T19:47:52.710Z,34.83
2023-01-21T19:50:22.299Z,38.60
2023-01-21T19:52:50.938Z,99.27
2023-01-21T19:55:24.197Z,42.20
2023-01-21T19:58:02.402Z,43.27
2023-01-21T20:00:38.704Z,39.17
2023-01-21T20:03:08.578Z,46.73
2023-01-21T20:05:35.867Z,34.60
2023-01-21T20:08:06.372Z,43.80
2023-01-21T20:10:42.661Z,49.67
2023-01-21T20:13:14.482Z,45.73
2023-01-21T20:15:43.819Z,49.10
2023-01-21T20:18:24.826Z,37.23
2023-01-21T20:20:52.594Z,41.33
2023-01-21T20:23:21.038Z,40.17
2023-01-21T20:26:00.380Z,34.80
2023-01-21T20:28:51.441Z,32.50
2023-01-21T20:31:19.695Z,39.07
2023-01-21T20:33:48.164Z,44.00
2023-01-21T20:36:22.011Z,33.80
2023-01-21T20:38:49.201Z,42.97
2023-01-21T20:41:16.700Z,38.90
2023-01-21T20:43:43.845Z,43.33
2023-01-21T20:46:19.862Z,43.50
2023-01-21T20:48:51.684Z,42.50
2023-01-21T20:51:21.922Z,39.20
2023-01-21T20:53:51.548Z,42.10
2023-01-21T20:56:21.164Z,47.17
2023-01-21T20:58:51.915Z,38.83
2023-01-21T21:01:21.973Z,42.53
2023-01-21T21:03:49.978Z,61.75
2023-01-21T21:06:22.728Z,52.58
2023-01-21T21:08:50.930Z,49.43
2023-01-21T21:11:19.026Z,39.03
2023-01-21T21:13:48.486Z,45.50
2023-01-21T21:16:24.359Z,44.87
2023-01-21T21:18:52.027Z,47.50
2023-01-21T21:21:21.672Z,41.17
2023-01-21T21:23:56.423Z,34.50
2023-01-21T21:26:26.121Z,40.50
2023-01-21T21:29:03.771Z,32.93
2023-01-21T21:31:45.395Z,38.53
2023-01-21T21:34:12.847Z,38.07
2023-01-21T21:36:42.015Z,40.30
2023-01-21T21:39:09.105Z,36.13
2023-01-21T21:41:54.329Z,31.77
2023-01-21T21:44:21.569Z,32.47
2023-01-21T21:47:07.157Z,34.87
2023-01-21T21:49:34.518Z,30.00
2023-01-21T21:52:10.534Z,30.57
2023-01-21T21:54:38.146Z,31.60
2023-01-21T21:57:05.588Z,35.07
2023-01-21T21:59:32.748Z,32.17
2023-01-21T22:02:00.836Z,36.00
2023-01-21T22:04:30.512Z,31.33
2023-01-21T22:07:14.563Z,27.10
2023-01-21T22:09:42.180Z,33.03
2023-01-21T22:12:13.627Z,28.57
2023-01-21T22:14:40.767Z,26.67
2023-01-21T22:17:09.053Z,33.27
2023-01-21T22:19:37.770Z,32.50
2023-01-21T22:22:05.572Z,30.43
2023-01-21T22:24:32.572Z,53.33
2023-01-21T22:27:09.090Z,27.20
2023-01-21T22:29:36.435Z,28.30
2023-01-21T22:32:04.000Z,34.23
2023-01-21T22:34:32.530Z,29.23
2023-01-21T22:37:00.031Z,28.10
2023-01-21T22:39:31.419Z,30.80
2023-01-21T22:42:03.571Z,29.27
2023-01-21T22:44:30.928Z,31.93
2023-01-21T22:47:04.117Z,35.40
2023-01-21T22:49:31.439Z,28.13
2023-01-21T22:51:58.656Z,37.22
2023-01-21T22:54:26.295Z,29.90
2023-01-21T22:56:53.471Z,26.50
2023-01-21T22:59:36.701Z,30.37
2023-01-21T23:02:07.807Z,25.63
2023-01-21T23:04:36.118Z,26.33
2023-01-21T23:07:06.693Z,27.13
2023-01-21T23:09:46.900Z,32.17
2023-01-21T23:15:01.824Z,31.37
2023-01-21T23:22:36.837Z,26.43
